Time;durP1;ratioP1;P1;durP2;ratioP2;P2;SDS_P1;SDS_P2;PMS_P1;PMS_P2;Temp;Humidity;BMP_temperature;BMP_pressure;BME280_temperature;BME280_humidity;BME280_pressure;Samples;Min_cycle;Max_cycle;Signal;HPM_P1;HPM_P2
2023/01/26 05:00:14;;;;;;;6.82;3.13;;;0.40;99.90;;;;;;5933063;23;20983;31
2023/01/26 05:02:41;;;;;;;7.03;2.67;;;0.40;99.90;;;;;;4892457;29;20252;-67
2023/01/26 05:05:09;;;;;;;6.30;6.00;;;0.40;99.90;;;;;;4896509;29;20208;-66
2023/01/26 05:07:35;;;;;;;6.43;5.30;;;0.40;99.90;;;;;;4888583;29;20222;-67
2023/01/26 05:10:02;;;;;;;7.97;5.05;;;0.40;99.90;;;;;;4893864;29;20659;-67
2023/01/26 05:12:36;;;;;;;4.82;4.53;;;0.40;99.90;;;;;;4894395;29;20233;-67
2023/01/26 05:15:02;;;;;;;4.35;4.05;;;0.40;99.90;;;;;;4896445;29;20216;-68
2023/01/26 05:17:31;;;;;;;1.63;1.55;;;0.40;99.90;;;;;;4894562;29;20601;-68
2023/01/26 05:19:57;;;;;;;2.83;2.15;;;0.40;99.90;;;;;;4894301;29;20210;-68
2023/01/26 05:22:24;;;;;;;6.15;4.32;;;0.40;99.90;;;;;;4894861;29;20238;-68
2023/01/26 05:24:51;;;;;;;11.05;4.53;;;0.40;99.90;;;;;;4896723;29;20229;-68
2023/01/26 05:27:23;;;;;;;5.57;5.10;;;0.40;99.90;;;;;;4894751;29;20211;-67
2023/01/26 05:29:51;;;;;;;5.93;5.47;;;0.40;99.90;;;;;;4891977;29;20214;-67
2023/01/26 05:32:18;;;;;;;3.65;3.45;;;0.50;99.90;;;;;;4895028;29;20671;-68
2023/01/26 05:34:46;;;;;;;5.30;5.03;;;0.40;99.90;;;;;;4893268;29;20206;-68
2023/01/26 05:37:13;;;;;;;9.88;2.97;;;0.40;99.90;;;;;;4898460;29;20246;-68
2023/01/26 05:39:40;;;;;;;11.85;4.95;;;0.40;99.90;;;;;;4896115;29;20210;-67
2023/01/26 05:42:06;;;;;;;9.48;3.97;;;0.50;99.90;;;;;;4895812;29;20226;-68
2023/01/26 05:44:33;;;;;;;4.45;3.63;;;0.50;99.90;;;;;;4895148;29;20218;-68
2023/01/26 05:47:00;;;;;;;8.55;6.32;;;0.50;99.90;;;;;;4895287;29;20204;-68
2023/01/26 05:49:27;;;;;;;6.40;6.00;;;0.50;99.90;;;;;;4894637;29;20679;-69
2023/01/26 05:51:55;;;;;;;7.38;4.60;;;0.50;99.90;;;;;;4894736;29;20235;-69
2023/01/26 05:54:21;;;;;;;8.00;7.55;;;0.50;99.90;;;;;;4896285;29;20210;-68
2023/01/26 05:56:48;;;;;;;4.22;3.63;;;0.50;99.90;;;;;;4895663;29;20317;-68
2023/01/26 05:59:15;;;;;;;9.88;4.72;;;0.50;99.90;;;;;;4894590;29;20235;-68
2023/01/26 06:01:42;;;;;;;6.85;6.55;;;0.50;99.90;;;;;;4894533;29;20237;-68
2023/01/26 06:04:09;;;;;;;3.90;3.60;;;0.50;99.90;;;;;;4895228;29;20699;-68
2023/01/26 06:06:35;;;;;;;3.03;2.72;;;0.50;99.90;;;;;;4890851;29;20290;-68
2023/01/26 06:09:04;;;;;;;8.07;6.18;;;0.50;99.90;;;;;;4894086;29;20222;-68
2023/01/26 06:11:32;;;;;;;11.40;3.63;;;0.50;99.90;;;;;;4894841;29;20230;-68
2023/01/26 06:13:59;;;;;;;3.40;3.10;;;0.60;99.90;;;;;;4894977;29;20214;-68
2023/01/26 06:16:25;;;;;;;6.00;4.78;;;0.50;99.90;;;;;;4894173;29;20235;-68
2023/01/26 06:18:52;;;;;;;15.40;6.18;;;0.50;99.90;;;;;;4893979;29;20220;-68
2023/01/26 06:21:19;;;;;;;7.18;3.63;;;0.60;99.90;;;;;;4893065;29;20684;-68
2023/01/26 06:23:45;;;;;;;4.78;4.55;;;0.60;99.90;;;;;;4895533;29;20203;-68
2023/01/26 06:26:14;;;;;;;7.35;3.45;;;0.50;99.90;;;;;;4894595;29;20218;-68
2023/01/26 06:28:41;;;;;;;5.00;4.38;;;0.50;99.90;;;;;;4894000;29;20227;-68
2023/01/26 06:31:09;;;;;;;5.25;3.70;;;0.50;99.90;;;;;;4894367;29;20234;-68
2023/01/26 06:33:37;;;;;;;11.20;6.57;;;0.50;99.90;;;;;;4893379;29;20658;-68
2023/01/26 06:36:06;;;;;;;8.02;7.25;;;0.50;99.90;;;;;;4894558;29;20227;-68
2023/01/26 06:38:33;;;;;;;12.32;7.07;;;0.50;99.90;;;;;;4891449;29;20227;-68
2023/01/26 06:41:01;;;;;;;5.03;4.70;;;0.50;99.90;;;;;;4895219;29;20230;-68
2023/01/26 06:43:30;;;;;;;6.65;5.68;;;0.60;99.90;;;;;;4894216;29;20574;-68
2023/01/26 06:45:57;;;;;;;3.72;3.20;;;0.60;99.90;;;;;;4893617;29;20222;-68
2023/01/26 06:48:25;;;;;;;10.57;4.93;;;0.60;99.90;;;;;;4894675;29;20218;-68
2023/01/26 06:50:52;;;;;;;6.00;5.00;;;0.60;99.90;;;;;;4895407;29;20237;-69
2023/01/26 06:53:26;;;;;;;4.22;3.95;;;0.60;99.90;;;;;;4894267;29;20214;-68
2023/01/26 06:55:53;;;;;;;5.15;4.65;;;0.60;99.90;;;;;;4893766;29;20217;-68
2023/01/26 06:58:20;;;;;;;13.50;9.00;;;0.60;99.90;;;;;;4894234;29;20257;-68
2023/01/26 07:00:48;;;;;;;5.07;4.78;;;0.70;99.90;;;;;;4893052;29;20248;-68
2023/01/26 07:03:14;;;;;;;5.75;4.90;;;0.60;99.90;;;;;;4894026;29;20241;-68
2023/01/26 07:05:41;;;;;;;8.95;8.40;;;0.70;99.90;;;;;;4893901;29;20219;-68
2023/01/26 07:08:08;;;;;;;4.40;3.60;;;0.70;99.90;;;;;;4894140;29;20203;-67
2023/01/26 07:10:35;;;;;;;13.60;8.20;;;0.70;99.90;;;;;;4893491;29;20321;-69
2023/01/26 07:13:04;;;;;;;12.80;4.50;;;0.70;99.90;;;;;;4894645;29;20225;-67
2023/01/26 07:15:30;;;;;;;12.10;6.88;;;0.70;99.90;;;;;;4893329;29;20203;-67
2023/01/26 07:17:59;;;;;;;13.90;7.38;;;0.80;99.90;;;;;;4895435;29;20238;-68
2023/01/26 07:20:26;;;;;;;5.15;4.20;;;0.80;99.90;;;;;;4892526;29;20215;-66
2023/01/26 07:22:53;;;;;;;6.20;2.97;;;0.70;99.90;;;;;;4894722;29;20215;-67
2023/01/26 07:25:20;;;;;;;11.93;6.43;;;0.80;99.90;;;;;;4894701;29;20214;-67
2023/01/26 07:27:46;;;;;;;8.07;5.80;;;0.70;99.90;;;;;;4895464;29;20214;-67
2023/01/26 07:30:14;;;;;;;4.50;4.00;;;0.70;99.90;;;;;;4895657;29;20274;-67
2023/01/26 07:32:40;;;;;;;8.63;6.05;;;0.70;99.90;;;;;;4893023;29;20674;-68
2023/01/26 07:35:09;;;;;;;8.27;3.42;;;0.80;99.90;;;;;;4891897;29;20206;-67
2023/01/26 07:37:36;;;;;;;20.25;9.60;;;0.80;99.90;;;;;;4894000;29;20467;-66
2023/01/26 07:40:04;;;;;;;8.32;5.35;;;0.80;99.90;;;;;;4895657;29;20214;-66
2023/01/26 07:42:31;;;;;;;11.77;7.45;;;0.80;99.90;;;;;;4894985;29;20234;-67
2023/01/26 07:44:58;;;;;;;19.20;4.47;;;0.80;99.90;;;;;;4897874;29;20226;-66
2023/01/26 07:47:25;;;;;;;7.57;6.85;;;0.80;99.90;;;;;;4898256;29;20211;-67
2023/01/26 07:49:52;;;;;;;7.55;3.78;;;0.80;99.90;;;;;;4898704;29;20320;-67
2023/01/26 07:52:20;;;;;;;19.38;6.22;;;0.80;99.90;;;;;;4897595;29;20268;-67
2023/01/26 07:54:47;;;;;;;7.47;5.70;;;0.80;99.90;;;;;;4899073;29;20216;-67
2023/01/26 07:57:13;;;;;;;4.88;4.47;;;0.80;99.90;;;;;;4898337;29;20440;-67
2023/01/26 07:59:40;;;;;;;16.05;6.03;;;0.80;99.90;;;;;;4896306;29;20211;-66
2023/01/26 08:02:09;;;;;;;6.75;4.53;;;0.80;99.90;;;;;;4893537;29;20239;-66
2023/01/26 08:04:36;;;;;;;8.82;6.68;;;0.70;99.90;;;;;;4897308;29;20564;-66
2023/01/26 08:07:02;;;;;;;4.97;3.13;;;0.80;99.90;;;;;;4898237;29;20221;-67
2023/01/26 08:09:31;;;;;;;7.47;3.45;;;0.80;99.90;;;;;;4897180;29;20242;-67
2023/01/26 08:11:58;;;;;;;11.50;9.40;;;0.80;99.90;;;;;;4897907;29;20231;-67
2023/01/26 08:14:24;;;;;;;3.08;2.80;;;0.80;99.90;;;;;;4895721;29;20300;-67
2023/01/26 08:16:51;;;;;;;12.18;6.18;;;0.80;99.90;;;;;;4897673;29;20312;-67
2023/01/26 08:19:18;;;;;;;11.98;4.63;;;0.80;99.90;;;;;;4898779;29;20306;-67
2023/01/26 08:21:45;;;;;;;5.40;3.33;;;0.80;99.90;;;;;;4895946;29;20567;-67
2023/01/26 08:24:12;;;;;;;12.15;5.68;;;0.80;99.90;;;;;;4893147;29;20227;-67
2023/01/26 08:26:40;;;;;;;15.80;3.88;;;0.80;99.90;;;;;;4894450;29;20218;-66
2023/01/26 08:29:07;;;;;;;6.63;4.28;;;0.80;99.90;;;;;;4898141;29;20217;-67
2023/01/26 08:31:34;;;;;;;5.30;2.92;;;0.80;99.90;;;;;;4894258;29;20241;-67
2023/01/26 08:34:01;;;;;;;13.43;3.95;;;0.90;99.90;;;;;;4894263;29;20234;-67
2023/01/26 08:36:28;;;;;;;5.38;2.15;;;0.90;99.90;;;;;;4896212;29;20218;-68
2023/01/26 08:38:55;;;;;;;3.85;3.63;;;0.90;99.90;;;;;;4897413;29;20212;-68
2023/01/26 08:41:21;;;;;;;7.03;6.28;;;0.90;99.90;;;;;;4897733;29;20241;-66
2023/01/26 08:43:51;;;;;;;3.92;3.63;;;0.90;99.90;;;;;;4896083;29;20218;-66
2023/01/26 08:46:18;;;;;;;1.52;1.52;;;0.90;99.90;;;;;;4896235;29;20274;-66
2023/01/26 08:48:45;;;;;;;4.70;4.30;;;0.90;99.90;;;;;;4891330;29;20302;-66
2023/01/26 08:51:12;;;;;;;4.68;1.60;;;0.90;99.90;;;;;;4897347;29;20242;-66
2023/01/26 08:53:38;;;;;;;4.45;3.35;;;0.90;99.90;;;;;;4895487;29;20307;-67
2023/01/26 08:56:07;;;;;;;6.90;2.72;;;0.90;99.90;;;;;;4896809;29;20218;-66
2023/01/26 08:58:34;;;;;;;5.07;3.70;;;1.00;99.90;;;;;;4896062;29;20241;-66
2023/01/26 09:01:05;;;;;;;5.25;2.65;;;1.00;99.90;;;;;;4896337;29;20242;-67
2023/01/26 09:03:32;;;;;;;8.75;4.05;;;1.00;99.90;;;;;;4895781;29;20540;-67
2023/01/26 09:06:00;;;;;;;4.70;2.33;;;1.00;99.90;;;;;;4897119;29;20226;-67
2023/01/26 09:08:26;;;;;;;5.65;3.63;;;1.00;99.90;;;;;;4896358;29;20212;-67
2023/01/26 09:10:53;;;;;;;9.23;4.53;;;1.00;99.90;;;;;;4896542;29;20227;-67
2023/01/26 09:13:20;;;;;;;7.38;6.80;;;1.00;99.90;;;;;;4895990;29;20222;-68
2023/01/26 09:15:47;;;;;;;4.80;2.70;;;1.00;99.90;;;;;;4896312;29;20700;-67
2023/01/26 09:18:15;;;;;;;6.72;3.75;;;1.10;99.90;;;;;;4895721;29;20231;-67
2023/01/26 09:20:42;;;;;;;5.10;4.75;;;1.10;99.90;;;;;;4894801;29;20253;-66
2023/01/26 09:23:09;;;;;;;4.55;3.80;;;1.10;99.90;;;;;;4896886;29;20219;-67
2023/01/26 09:25:37;;;;;;;12.75;3.90;;;1.10;99.90;;;;;;4896564;29;20226;-68
2023/01/26 09:28:04;;;;;;;8.73;5.13;;;1.10;99.90;;;;;;4896771;29;20275;-68
2023/01/26 09:30:31;;;;;;;5.22;3.45;;;1.10;99.90;;;;;;4895942;29;20207;-68
2023/01/26 09:32:59;;;;;;;2.17;1.95;;;1.10;99.90;;;;;;4896361;29;20208;-68
2023/01/26 09:35:27;;;;;;;8.10;5.45;;;1.10;99.90;;;;;;4896198;29;20326;-68
2023/01/26 09:37:54;;;;;;;4.30;3.55;;;1.10;99.90;;;;;;4895373;29;20228;-68
2023/01/26 09:40:26;;;;;;;11.38;5.38;;;1.10;99.90;;;;;;4893751;29;20212;-67
2023/01/26 09:43:14;;;;;;;7.32;4.47;;;1.20;99.90;;;;;;4896230;29;20207;-67
2023/01/26 09:45:46;;;;;;;24.27;12.00;;;1.20;99.90;;;;;;4892612;29;20212;-68
2023/01/26 09:48:23;;;;;;;9.90;4.35;;;1.20;99.90;;;;;;4893488;29;20679;-67
2023/01/26 09:50:57;;;;;;;3.45;3.15;;;1.30;99.90;;;;;;4890714;29;20235;-67
2023/01/26 09:53:28;;;;;;;9.45;5.82;;;1.30;99.90;;;;;;4895859;29;20218;-67
2023/01/26 09:55:55;;;;;;;4.78;4.50;;;1.30;99.90;;;;;;4896465;29;20212;-68
2023/01/26 09:58:33;;;;;;;5.60;5.15;;;1.30;99.90;;;;;;4891978;29;20223;-68
2023/01/26 10:01:02;;;;;;;6.68;2.72;;;1.30;99.90;;;;;;4896446;29;20235;-66
2023/01/26 10:03:34;;;;;;;7.20;6.47;;;1.30;99.90;;;;;;4896514;29;20270;-67
2023/01/26 10:06:12;;;;;;;4.32;4.07;;;1.40;99.90;;;;;;4896587;29;20239;-67
2023/01/26 10:08:40;;;;;;;4.47;4.00;;;1.40;99.90;;;;;;4894050;29;20219;-66
2023/01/26 10:11:15;;;;;;;4.35;3.25;;;1.40;99.90;;;;;;4897113;29;20700;-67
2023/01/26 10:13:48;;;;;;;7.97;4.13;;;1.40;99.90;;;;;;4895263;29;20206;-67
2023/01/26 10:16:16;;;;;;;6.53;3.95;;;1.40;99.90;;;;;;4896412;29;20215;-68
2023/01/26 10:18:52;;;;;;;4.85;3.25;;;1.50;99.90;;;;;;4894900;29;20223;-68
2023/01/26 10:21:23;;;;;;;17.42;8.10;;;1.50;99.90;;;;;;4895796;29;20239;-67
2023/01/26 10:23:51;;;;;;;8.63;4.38;;;1.50;99.90;;;;;;4896096;29;20219;-68
2023/01/26 10:26:20;;;;;;;4.80;4.32;;;1.50;99.90;;;;;;4894854;29;20252;-68
2023/01/26 10:28:49;;;;;;;11.27;3.70;;;1.50;99.90;;;;;;4891791;29;20279;-68
2023/01/26 10:31:18;;;;;;;5.25;3.55;;;1.60;99.90;;;;;;4888226;29;20231;-68
2023/01/26 10:33:51;;;;;;;15.30;7.85;;;1.60;99.90;;;;;;4894494;29;20211;-67
2023/01/26 10:36:18;;;;;;;13.07;4.85;;;1.70;99.90;;;;;;4894933;29;20233;-67
2023/01/26 10:38:47;;;;;;;4.63;4.13;;;1.70;99.90;;;;;;4895696;29;20231;-67
2023/01/26 10:41:27;;;;;;;5.47;4.25;;;1.70;99.90;;;;;;4895325;29;20262;-67
2023/01/26 10:43:56;;;;;;;4.95;4.38;;;1.70;99.90;;;;;;4895993;29;20301;-68
2023/01/26 10:46:26;;;;;;;1.90;1.80;;;1.80;99.90;;;;;;4899841;29;20222;-67
2023/01/26 10:48:53;;;;;;;5.93;3.90;;;1.80;99.90;;;;;;4895968;29;20210;-66
2023/01/26 10:51:25;;;;;;;6.40;5.45;;;1.80;99.90;;;;;;4895335;29;20239;-67
2023/01/26 10:54:14;;;;;;;4.20;2.60;;;1.80;99.90;;;;;;4894323;29;20692;-67
2023/01/26 10:56:44;;;;;;;5.28;4.63;;;1.80;99.90;;;;;;4891774;29;20219;-68
2023/01/26 10:59:16;;;;;;;5.65;3.05;;;1.80;99.90;;;;;;4895456;29;20272;-67
2023/01/26 11:01:54;;;;;;;4.88;4.43;;;1.80;99.90;;;;;;4893911;29;20253;-67
2023/01/26 11:04:21;;;;;;;6.03;2.33;;;1.90;99.90;;;;;;4894574;29;20219;-67
2023/01/26 11:06:48;;;;;;;7.03;4.00;;;1.90;99.90;;;;;;4893881;29;20298;-67
2023/01/26 11:09:21;;;;;;;3.17;2.97;;;1.90;99.90;;;;;;4894572;29;20603;-67
2023/01/26 11:12:00;;;;;;;6.88;5.50;;;2.00;99.90;;;;;;4887761;29;20235;-67
2023/01/26 11:14:28;;;;;;;8.25;5.00;;;2.00;99.90;;;;;;4894389;29;20724;-67
2023/01/26 11:17:01;;;;;;;4.32;3.88;;;2.00;99.90;;;;;;4893741;29;20207;-67
2023/01/26 11:19:46;;;;;;;7.55;5.18;;;2.00;99.90;;;;;;4895101;29;20602;-67
2023/01/26 11:22:18;;;;;;;5.38;4.00;;;2.00;99.90;;;;;;4893109;29;20242;-67
2023/01/26 11:24:58;;;;;;;7.05;4.85;;;2.00;99.90;;;;;;4895884;29;20222;-67
2023/01/26 11:27:36;;;;;;;5.00;4.32;;;2.10;99.90;;;;;;4897772;29;20221;-68
2023/01/26 11:30:41;;;;;;;4.90;4.57;;;2.10;99.90;;;;;;4897121;29;20207;-67
2023/01/26 11:33:17;;;;;;;6.22;5.63;;;2.20;99.90;;;;;;4889015;29;20552;-66
2023/01/26 11:35:53;;;;;;;3.47;3.33;;;2.20;99.90;;;;;;4896893;29;20233;-67
2023/01/26 11:38:37;;;;;;;2.72;2.47;;;2.20;99.90;;;;;;4896412;29;20242;-66
2023/01/26 11:41:19;;;;;;;8.13;3.42;;;2.30;99.90;;;;;;4954068;23;20883;-69
2023/01/26 11:44:16;;;;;;;4.95;3.38;;;2.30;99.90;;;;;;4934661;29;20214;-68
2023/01/26 11:47:08;;;;;;;5.80;4.95;;;2.40;99.90;;;;;;4934512;29;20202;-68
2023/01/26 11:49:47;;;;;;;8.90;4.40;;;2.40;99.90;;;;;;4936782;29;20226;-68
2023/01/26 11:52:21;;;;;;;5.63;4.22;;;2.50;99.90;;;;;;4933599;29;20290;-68
2023/01/26 11:55:17;;;;;;;6.88;3.00;;;2.60;99.90;;;;;;4928207;29;20230;-69
2023/01/26 11:57:56;;;;;;;4.22;3.92;;;2.60;99.90;;;;;;4935267;29;20213;-67
2023/01/26 12:00:30;;;;;;;4.20;3.78;;;2.60;99.90;;;;;;4936777;29;20233;-68
2023/01/26 12:03:02;;;;;;;4.15;3.75;;;2.60;99.90;;;;;;4935794;29;20752;-68
2023/01/26 12:05:33;;;;;;;13.65;4.50;;;2.60;99.90;;;;;;4934372;29;20647;-67
2023/01/26 12:08:05;;;;;;;3.92;2.08;;;2.60;99.90;;;;;;4936340;29;20544;-68
2023/01/26 12:10:38;;;;;;;1.85;1.73;;;2.60;99.90;;;;;;4936709;29;20233;-68
2023/01/26 12:13:16;;;;;;;4.40;1.67;;;2.50;99.90;;;;;;4935227;29;20209;-68
2023/01/26 12:15:52;;;;;;;6.07;2.72;;;2.50;99.90;;;;;;4935515;29;20589;-68
2023/01/26 12:18:23;;;;;;;10.20;9.30;;;2.50;99.90;;;;;;4935265;29;20701;-68
2023/01/26 12:20:53;;;;;;;9.48;3.33;;;2.50;99.90;;;;;;4928823;29;20244;-68
2023/01/26 12:23:32;;;;;;;2.90;2.83;;;2.50;99.90;;;;;;4934130;29;20217;-68
2023/01/26 12:26:02;;;;;;;5.82;4.35;;;2.50;99.90;;;;;;4932670;29;20303;-68
2023/01/26 12:28:34;;;;;;;5.05;2.60;;;2.50;99.90;;;;;;4934663;29;20218;-68
2023/01/26 12:31:08;;;;;;;7.28;5.32;;;2.40;99.90;;;;;;4929611;29;20222;-69
2023/01/26 12:33:36;;;;;;;13.77;7.68;;;2.40;99.90;;;;;;4935531;29;20209;-69
2023/01/26 12:36:22;;;;;;;4.65;4.28;;;2.50;99.90;;;;;;4936457;29;20584;-69
2023/01/26 12:39:08;;;;;;;4.90;2.00;;;2.50;99.90;;;;;;4933584;29;20237;-69
2023/01/26 12:42:01;;;;;;;5.05;2.45;;;2.50;99.90;;;;;;4935437;29;20210;-69
2023/01/26 12:44:37;;;;;;;11.25;2.35;;;2.50;99.90;;;;;;4935035;29;20210;-68
2023/01/26 12:47:10;;;;;;;4.95;3.53;;;2.60;99.90;;;;;;4934655;29;20229;-68
2023/01/26 12:49:43;;;;;;;4.75;4.30;;;2.50;99.90;;;;;;4934895;29;20241;-68
2023/01/26 12:52:16;;;;;;;8.15;2.85;;;2.60;99.90;;;;;;4936590;29;20632;-68
2023/01/26 12:54:47;;;;;;;2.78;2.22;;;2.50;99.90;;;;;;4936848;29;20233;-69
2023/01/26 12:57:19;;;;;;;3.78;2.58;;;2.50;99.90;;;;;;4935078;29;20232;-69
2023/01/26 12:59:48;;;;;;;3.40;2.78;;;2.50;99.90;;;;;;4927389;29;20244;-67
2023/01/26 13:02:25;;;;;;;5.55;2.38;;;2.50;99.90;;;;;;4935383;29;20217;-68
2023/01/26 13:04:52;;;;;;;16.45;6.95;;;2.50;99.90;;;;;;4942367;29;20630;-68
2023/01/26 13:07:28;;;;;;;1.63;1.45;;;2.50;99.90;;;;;;4953168;28;20682;-68
2023/01/26 13:10:25;;;;;;;3.58;3.38;;;2.50;99.90;;;;;;4933941;29;20252;-68
2023/01/26 13:12:54;;;;;;;3.30;2.92;;;2.50;99.90;;;;;;4934992;29;20202;-68
2023/01/26 13:15:24;;;;;;;1.75;1.55;;;2.50;99.90;;;;;;4935231;29;20213;-68
2023/01/26 13:17:53;;;;;;;6.15;3.17;;;2.50;99.90;;;;;;4934926;29;20214;-68
2023/01/26 13:20:42;;;;;;;2.25;2.00;;;2.50;99.90;;;;;;4934037;29;20238;-68
2023/01/26 13:23:38;;;;;;;2.03;1.92;;;2.50;99.90;;;;;;4930521;29;20203;-68
2023/01/26 13:26:17;;;;;;;2.45;2.40;;;2.50;99.90;;;;;;4925264;29;20230;-68
2023/01/26 13:28:44;;;;;;;4.35;2.35;;;2.50;99.90;;;;;;4934213;29;20215;-68
2023/01/26 13:31:13;;;;;;;6.28;2.15;;;2.50;99.90;;;;;;4934268;29;20234;-68
2023/01/26 13:33:41;;;;;;;4.25;3.92;;;2.50;99.90;;;;;;4932993;29;20221;-68
2023/01/26 13:36:15;;;;;;;19.08;7.25;;;2.50;99.90;;;;;;4932753;29;20210;-68
2023/01/26 13:38:46;;;;;;;4.75;4.57;;;2.50;99.90;;;;;;4933787;29;20228;-68
2023/01/26 13:41:17;;;;;;;4.32;2.92;;;2.50;99.90;;;;;;4935879;29;20237;-69
2023/01/26 13:43:49;;;;;;;6.82;2.83;;;2.50;99.90;;;;;;4936694;29;20694;-68
2023/01/26 13:46:23;;;;;;;2.25;1.90;;;2.50;99.90;;;;;;4935078;29;20671;-68
2023/01/26 13:48:50;;;;;;;2.92;2.72;;;2.50;99.90;;;;;;4935886;29;20198;-68
2023/01/26 13:51:20;;;;;;;7.40;6.45;;;2.40;99.90;;;;;;4935408;29;20230;-68
2023/01/26 13:53:53;;;;;;;1.60;1.58;;;2.40;99.90;;;;;;4928121;29;20214;-69
2023/01/26 13:56:23;;;;;;;11.10;3.28;;;2.40;99.90;;;;;;4934629;29;20210;-68
2023/01/26 13:58:50;;;;;;;12.35;3.75;;;2.50;99.90;;;;;;4934458;29;20731;-67
2023/01/26 14:01:20;;;;;;;2.83;2.50;;;2.40;99.90;;;;;;4934277;29;20226;-67
2023/01/26 14:03:47;;;;;;;9.30;3.55;;;2.40;99.90;;;;;;4931384;29;20209;-68
2023/01/26 14:06:17;;;;;;;4.75;3.03;;;2.50;99.90;;;;;;4933048;29;20237;-68
2023/01/26 14:08:51;;;;;;;6.95;4.20;;;2.50;99.90;;;;;;4933522;29;20289;-69
2023/01/26 14:11:21;;;;;;;6.70;5.72;;;2.60;99.90;;;;;;4934211;29;20268;-68
2023/01/26 14:13:51;;;;;;;11.18;5.20;;;2.60;99.90;;;;;;4932476;29;20290;-69
2023/01/26 14:16:25;;;;;;;3.58;2.88;;;2.60;99.90;;;;;;4933933;29;20213;-69
2023/01/26 14:18:52;;;;;;;11.02;7.38;;;2.60;99.90;;;;;;4931373;29;20683;-68
2023/01/26 14:21:22;;;;;;;26.40;5.72;;;2.60;99.90;;;;;;4934009;29;20741;-68
2023/01/26 14:23:55;;;;;;;6.32;5.70;;;2.60;99.90;;;;;;4931628;29;20202;-69
2023/01/26 14:26:29;;;;;;;16.70;7.35;;;2.60;99.90;;;;;;4932003;29;20234;-70
2023/01/26 14:28:59;;;;;;;8.05;3.65;;;2.60;99.90;;;;;;4929805;29;20262;-68
2023/01/26 14:31:28;;;;;;;7.53;6.35;;;2.60;99.90;;;;;;4932451;29;20209;-69
2023/01/26 14:33:57;;;;;;;8.80;4.80;;;2.60;99.90;;;;;;4932334;29;20213;-69
2023/01/26 14:36:26;;;;;;;13.13;4.70;;;2.60;99.90;;;;;;4931016;29;20658;-69
2023/01/26 14:38:55;;;;;;;12.45;7.60;;;2.70;99.90;;;;;;4934108;29;20226;-68
2023/01/26 14:41:25;;;;;;;3.95;3.60;;;2.60;99.90;;;;;;4933181;29;20638;-68
2023/01/26 14:43:53;;;;;;;5.43;3.72;;;2.60;99.90;;;;;;4930268;29;20653;-69
2023/01/26 14:46:25;;;;;;;6.70;4.68;;;2.60;99.90;;;;;;4931574;29;20210;-68
2023/01/26 14:48:59;;;;;;;7.40;5.72;;;2.60;99.90;;;;;;4932446;29;20210;-69
2023/01/26 14:51:27;;;;;;;10.43;7.43;;;2.60;99.90;;;;;;4933559;29;20202;-69
2023/01/26 14:53:57;;;;;;;4.93;2.53;;;2.60;99.90;;;;;;4931673;29;20202;-69
2023/01/26 14:56:32;;;;;;;8.82;4.43;;;2.60;99.90;;;;;;4933591;29;20213;-69
2023/01/26 14:58:59;;;;;;;7.55;3.00;;;2.70;99.90;;;;;;4914356;29;20278;-69
2023/01/26 15:01:27;;;;;;;17.08;5.25;;;2.70;99.90;;;;;;4931024;29;20206;-69
2023/01/26 15:04:01;;;;;;;5.72;4.40;;;2.60;99.90;;;;;;4931928;29;20210;-67
2023/01/26 15:06:29;;;;;;;4.60;3.90;;;2.70;99.90;;;;;;4933645;29;20221;-68
2023/01/26 15:09:03;;;;;;;8.13;5.28;;;2.70;99.90;;;;;;4931324;29;20202;-67
2023/01/26 15:14:32;;;;;;;2.63;2.38;;;2.70;99.90;;;;;;4931436;29;20265;-69
2023/01/26 15:16:59;;;;;;;8.43;5.55;;;2.70;99.90;;;;;;4926578;29;20225;-69
2023/01/26 15:19:32;;;;;;;5.63;4.65;;;2.70;99.90;;;;;;4932559;29;20245;-68
2023/01/26 15:21:59;;;;;;;13.45;6.30;;;2.70;99.90;;;;;;4932341;29;20206;-69
2023/01/26 15:24:26;;;;;;;14.25;5.47;;;2.70;99.90;;;;;;4931495;29;20749;-68
2023/01/26 15:26:53;;;;;;;9.43;5.95;;;2.80;99.90;;;;;;4933483;29;20207;-69
2023/01/26 15:29:25;;;;;;;4.30;3.92;;;2.80;99.90;;;;;;4926336;29;20590;-69
2023/01/26 15:31:54;;;;;;;4.32;3.63;;;2.80;99.90;;;;;;4926179;29;20206;-69
2023/01/26 15:34:35;;;;;;;6.85;2.50;;;2.70;99.90;;;;;;4931144;29;20221;-68
2023/01/26 15:37:03;;;;;;;9.52;3.13;;;2.80;99.90;;;;;;4932283;29;20591;-68
2023/01/26 15:39:30;;;;;;;6.07;4.40;;;2.80;99.90;;;;;;4927164;29;20233;-69
2023/01/26 15:42:12;;;;;;;4.10;3.72;;;2.80;99.90;;;;;;4933235;29;20217;-69
2023/01/26 15:44:39;;;;;;;4.50;3.53;;;2.80;99.90;;;;;;4931179;29;20206;-69
2023/01/26 15:47:09;;;;;;;11.95;4.60;;;2.80;99.90;;;;;;4931446;29;20213;-68
2023/01/26 15:49:38;;;;;;;9.65;3.85;;;2.80;99.90;;;;;;4928940;29;20265;-68
2023/01/26 15:52:12;;;;;;;2.10;2.00;;;2.80;99.90;;;;;;4930713;29;20210;-69
2023/01/26 15:54:38;;;;;;;3.20;3.00;;;2.80;99.90;;;;;;4932257;29;20245;-68
2023/01/26 15:57:05;;;;;;;5.30;2.88;;;2.80;99.90;;;;;;4931373;29;20576;-68
2023/01/26 15:59:32;;;;;;;2.20;1.63;;;2.80;99.90;;;;;;4931498;29;20322;-68
2023/01/26 16:01:59;;;;;;;2.85;2.03;;;2.80;99.90;;;;;;4933330;29;20210;-68
2023/01/26 16:04:27;;;;;;;3.15;2.95;;;2.80;99.90;;;;;;4931274;29;20219;-69
2023/01/26 16:06:55;;;;;;;7.10;3.92;;;2.80;99.90;;;;;;4934768;29;20214;-68
2023/01/26 16:09:22;;;;;;;3.75;2.13;;;2.80;99.90;;;;;;4934768;29;20222;-68
2023/01/26 16:11:51;;;;;;;4.07;2.22;;;2.80;99.90;;;;;;4934352;29;20213;-68
2023/01/26 16:14:18;;;;;;;5.75;1.85;;;2.80;99.90;;;;;;4936276;29;20217;-69
2023/01/26 16:16:45;;;;;;;3.95;1.75;;;2.80;99.90;;;;;;4934676;29;20213;-68
2023/01/26 16:19:13;;;;;;;1.55;1.45;;;2.70;99.90;;;;;;4933787;29;20396;-70
2023/01/26 16:21:43;;;;;;;1.70;1.60;;;2.70;99.90;;;;;;4935865;29;20240;-68
2023/01/26 16:24:11;;;;;;;2.55;2.35;;;2.70;99.90;;;;;;4935889;29;20337;-68
2023/01/26 16:26:38;;;;;;;3.60;2.85;;;2.70;99.90;;;;;;4935521;29;20207;-68
2023/01/26 16:29:05;;;;;;;3.80;2.05;;;2.70;99.90;;;;;;4936310;29;20240;-68
2023/01/26 16:31:35;;;;;;;3.30;3.08;;;2.70;99.90;;;;;;4935266;29;20210;-69
2023/01/26 16:34:02;;;;;;;3.13;3.08;;;2.70;99.90;;;;;;4933819;29;20301;-69
2023/01/26 16:36:29;;;;;;;2.22;2.03;;;2.70;99.90;;;;;;4933679;29;20210;-69
2023/01/26 16:38:55;;;;;;;4.95;3.65;;;2.70;99.90;;;;;;4934929;29;20699;-67
2023/01/26 16:41:27;;;;;;;3.08;2.80;;;2.70;99.90;;;;;;4936316;29;20842;-68
2023/01/26 16:43:55;;;;;;;5.57;5.10;;;2.70;99.90;;;;;;4932228;29;20206;-69
2023/01/26 16:46:22;;;;;;;2.80;2.70;;;2.70;99.90;;;;;;4937919;29;20559;-68
2023/01/26 16:48:49;;;;;;;5.13;3.97;;;2.70;99.90;;;;;;4935828;29;20640;-69
2023/01/26 16:51:19;;;;;;;3.05;2.22;;;2.70;99.90;;;;;;4935873;29;20226;-70
2023/01/26 16:53:47;;;;;;;7.72;3.28;;;2.70;99.90;;;;;;4933410;29;20631;-69
2023/01/26 16:56:15;;;;;;;4.63;3.60;;;2.70;99.90;;;;;;4934544;29;20214;-69
2023/01/26 16:58:43;;;;;;;1.73;1.73;;;2.70;99.90;;;;;;4934670;29;20663;-69
2023/01/26 17:01:17;;;;;;;5.97;5.38;;;2.70;99.90;;;;;;4931253;29;20234;-68
2023/01/26 17:03:44;;;;;;;3.33;3.08;;;2.70;99.90;;;;;;4930478;29;20213;-69
2023/01/26 17:06:12;;;;;;;4.22;3.33;;;2.70;99.90;;;;;;4934933;29;20217;-68
2023/01/26 17:08:39;;;;;;;14.30;3.72;;;2.70;99.90;;;;;;4933738;29;23458;-68
2023/01/26 17:11:06;;;;;;;8.00;5.43;;;2.70;99.90;;;;;;4928875;29;20221;-68
2023/01/26 17:13:33;;;;;;;3.45;2.35;;;2.70;99.90;;;;;;4927042;29;20608;-69
2023/01/26 17:16:01;;;;;;;2.45;2.25;;;2.70;99.90;;;;;;4927351;29;20297;-68
2023/01/26 17:18:28;;;;;;;4.45;3.83;;;2.70;99.90;;;;;;4932009;29;20631;-69
2023/01/26 17:21:01;;;;;;;4.35;4.05;;;2.80;99.90;;;;;;4933121;29;20722;-68
2023/01/26 17:23:27;;;;;;;4.97;4.57;;;2.70;99.90;;;;;;4931571;29;20221;-69
2023/01/26 17:25:57;;;;;;;13.95;4.78;;;2.80;99.90;;;;;;4935141;29;20579;-68
2023/01/26 17:28:24;;;;;;;4.60;4.40;;;2.80;99.90;;;;;;4931176;29;20365;-69
2023/01/26 17:30:51;;;;;;;11.27;2.70;;;2.70;99.90;;;;;;4934343;29;20701;-68
2023/01/26 17:33:19;;;;;;;5.43;3.63;;;2.70;99.90;;;;;;4934375;29;20214;-68
2023/01/26 17:35:46;;;;;;;2.38;2.15;;;2.70;99.90;;;;;;4931087;29;20295;-68
2023/01/26 17:38:12;;;;;;;4.93;3.22;;;2.80;99.90;;;;;;4934253;29;20214;-68
2023/01/26 17:40:39;;;;;;;1.75;1.75;;;2.70;99.90;;;;;;4933898;29;20598;-68
2023/01/26 17:43:06;;;;;;;6.47;3.25;;;2.80;99.90;;;;;;4934966;29;20202;-69
2023/01/26 17:45:32;;;;;;;5.55;2.45;;;2.70;99.90;;;;;;4932586;29;20210;-68
2023/01/26 17:47:59;;;;;;;2.30;2.10;;;2.70;99.90;;;;;;4931518;29;20209;-68
2023/01/26 17:50:27;;;;;;;5.72;5.22;;;2.70;99.90;;;;;;4930661;29;20256;-69
2023/01/26 17:52:54;;;;;;;3.20;3.03;;;2.70;99.90;;;;;;4933443;29;20214;-68
2023/01/26 17:55:21;;;;;;;5.07;3.38;;;2.70;99.90;;;;;;4933610;29;20233;-68
2023/01/26 17:57:47;;;;;;;3.05;2.95;;;2.70;99.90;;;;;;4934924;29;20217;-68
2023/01/26 18:00:15;;;;;;;5.07;3.40;;;2.70;99.90;;;;;;4931303;29;20580;-69
2023/01/26 18:02:42;;;;;;;7.03;3.50;;;2.70;99.90;;;;;;4933764;29;20264;-68
2023/01/26 18:05:09;;;;;;;5.07;3.78;;;2.70;99.90;;;;;;4930998;29;20217;-68
2023/01/26 18:07:37;;;;;;;3.20;2.97;;;2.70;99.90;;;;;;4934281;29;20202;-68
2023/01/26 18:10:05;;;;;;;6.63;4.20;;;2.70;99.90;;;;;;4933308;29;20227;-69
2023/01/26 18:12:32;;;;;;;2.80;2.58;;;2.70;99.90;;;;;;4934067;29;20206;-69